Time;durP1;ratioP1;P1;durP2;ratioP2;P2;SDS_P1;SDS_P2;PMS_P1;PMS_P2;Temp;Humidity;BMP_temperature;BMP_pressure;BME280_temperature;BME280_humidity;BME280_pressure;Samples;Min_cycle;Max_cycle;Signal;HPM_P1;HPM_P2
2022/12/13 07:01:14;;;;;;;43.80;23.20;;;;;;;1.23;100.00;99345.48;1720544;80;21183;-42
2022/12/13 07:03:41;;;;;;;45.88;24.43;;;;;;;1.26;100.00;99344.25;1725513;80;21421;-42
2022/12/13 07:06:14;;;;;;;48.05;24.43;;;;;;;1.28;100.00;99338.73;1734165;80;21047;-49
2022/12/13 07:08:50;;;;;;;46.92;26.55;;;;;;;1.30;100.00;99340.91;1728313;80;21063;-48
2022/12/13 07:11:19;;;;;;;42.78;23.18;;;;;;;1.34;100.00;99345.31;1731046;80;21054;-47
2022/12/13 07:13:47;;;;;;;43.40;24.67;;;;;;;1.38;100.00;99341.94;1734432;80;21042;-48
2022/12/13 07:16:20;;;;;;;46.88;24.45;;;;;;;1.41;100.00;99336.86;1733416;80;21131;-49
2022/12/13 07:18:47;;;;;;;46.83;24.95;;;;;;;1.43;100.00;99332.59;1728359;80;21668;-48
2022/12/13 07:22:07;;;;;;;48.98;24.92;;;;;;;1.46;100.00;99331.81;1725684;80;21541;-47
2022/12/13 07:25:52;;;;;;;47.30;24.18;;;;;;;1.47;100.00;99331.84;1726439;80;21640;-41
2022/12/13 07:29:08;;;;;;;45.50;24.85;;;;;;;1.52;100.00;99338.38;1730460;80;21059;-41
2022/12/13 07:39:25;;;;;;;44.85;23.02;;;;;;;1.64;100.00;99333.89;1726524;80;22066;-48
2022/12/13 07:42:27;;;;;;;41.70;22.75;;;;;;;1.73;100.00;99337.51;1704491;81;21034;-45
2022/12/13 07:49:06;;;;;;;37.42;22.05;;;;;;;1.82;100.00;99335.12;1737204;80;21739;-42
2022/12/13 07:51:47;;;;;;;39.80;21.48;;;;;;;1.83;100.00;99330.84;1725123;80;21130;-41
2022/12/13 07:54:28;;;;;;;40.67;21.48;;;;;;;1.81;100.00;99326.95;1707589;80;21010;-48
2022/12/13 07:56:55;;;;;;;40.85;22.17;;;;;;;1.75;100.00;99329.83;1740882;80;21453;-41
2022/12/13 07:59:22;;;;;;;38.08;22.00;;;;;;;1.69;100.00;99324.55;1722787;80;21621;-42
2022/12/13 10:14:44;;;;;;;25.62;17.75;;;;;;;0.69;100.00;99156.69;1759890;78;23978;-47
2022/12/13 10:17:14;;;;;;;30.08;18.73;;;;;;;0.62;100.00;99158.69;1766908;79;21046;-48
2022/12/13 10:19:50;;;;;;;27.30;16.90;;;;;;;0.58;100.00;99162.03;1771897;79;21029;-48
2022/12/13 10:22:15;;;;;;;24.80;16.90;;;;;;;0.52;100.00;99161.09;1772388;79;21077;-48
2022/12/13 10:25:02;;;;;;;25.65;17.17;;;;;;;0.51;100.00;99155.87;1770707;79;21028;-48
2022/12/13 10:27:42;;;;;;;29.07;16.02;;;;;;;0.49;100.00;99147.27;1773824;79;21110;-49
2022/12/13 10:30:19;;;;;;;24.52;15.18;;;;;;;0.50;100.00;99149.00;1767802;79;21045;-49
2022/12/13 10:32:59;;;;;;;28.05;16.60;;;;;;;0.50;100.00;99149.00;1771992;79;22119;-43
2022/12/13 10:35:37;;;;;;;30.40;18.32;;;;;;;0.50;100.00;99150.28;1725434;81;20985;-43
2022/12/13 10:38:15;;;;;;;29.70;15.88;;;;;;;0.48;100.00;99142.55;1721490;81;21069;-44
2022/12/13 10:40:47;;;;;;;25.95;16.42;;;;;;;0.47;100.00;99143.38;1725109;81;21582;-43
2022/12/13 10:43:17;;;;;;;27.77;15.72;;;;;;;0.48;100.00;99150.68;1726405;81;21061;-49
2022/12/13 10:45:58;;;;;;;25.92;16.10;;;;;;;0.45;100.00;99141.17;1726671;81;21622;-49
2022/12/13 10:48:39;;;;;;;23.02;14.03;;;;;;;0.44;100.00;99137.28;1732663;81;21595;-49
2022/12/13 10:51:18;;;;;;;24.92;14.93;;;;;;;0.42;100.00;99138.97;1742171;81;21322;-49
2022/12/13 10:53:50;;;;;;;25.90;16.17;;;;;;;0.43;100.00;99144.14;1730889;81;21566;-49
2022/12/13 10:56:17;;;;;;;24.77;15.32;;;;;;;0.41;100.00;99137.23;1727218;81;21023;-48
2022/12/13 10:58:45;;;;;;;26.62;16.40;;;;;;;0.41;100.00;99135.95;1731899;81;21457;-48
2022/12/13 11:01:23;;;;;;;24.20;14.50;;;;;;;0.41;100.00;99141.09;1738838;79;21035;-49
2022/12/13 11:04:06;;;;;;;24.55;16.15;;;;;;;0.44;100.00;99134.71;1711966;81;21054;-49
2022/12/13 11:06:43;;;;;;;31.20;16.23;;;;;;;0.44;100.00;99130.43;1731190;81;21932;-48
2022/12/13 11:09:30;;;;;;;23.50;15.68;;;;;;;0.46;100.00;99133.03;1743852;81;21064;-48
2022/12/13 11:12:01;;;;;;;28.65;16.65;;;;;;;0.47;100.00;99136.08;1740758;81;20956;-50
2022/12/13 11:14:31;;;;;;;26.37;16.57;;;;;;;0.48;100.00;99131.38;1740823;81;21102;-49
2022/12/13 11:17:05;;;;;;;30.23;19.05;;;;;;;0.49;100.00;99135.69;1733237;81;21649;-48
2022/12/13 11:19:39;;;;;;;26.50;16.07;;;;;;;0.49;100.00;99138.26;1735503;81;21051;-48
2022/12/13 11:22:07;;;;;;;27.37;16.30;;;;;;;0.52;100.00;99139.20;1738514;81;21012;-48
2022/12/13 11:24:39;;;;;;;25.68;17.48;;;;;;;0.57;100.00;99132.84;1711062;82;21057;-43
2022/12/13 11:27:24;;;;;;;26.68;14.90;;;;;;;0.60;100.00;99134.64;1690505;82;21271;-42
2022/12/13 11:30:39;;;;;;;25.72;14.80;;;;;;;0.60;100.00;99131.64;1710006;81;21759;-50
2022/12/13 11:34:05;;;;;;;27.98;16.97;;;;;;;0.60;100.00;99123.91;1712642;82;21073;-43
2022/12/13 11:37:10;;;;;;;28.15;18.90;;;;;;;0.57;100.00;99127.70;1696559;82;21521;-44
2022/12/13 11:39:42;;;;;;;28.77;17.87;;;;;;;0.58;100.00;99124.70;1717944;82;21562;-43
2022/12/13 11:42:40;;;;;;;20.05;13.43;;;;;;;0.60;100.00;99130.77;1721065;81;109304;-43
2022/12/13 11:45:21;;;;;;;38.65;25.23;;;;;;;0.58;100.00;99111.44;1719706;82;22000;-48
2022/12/13 11:48:05;;;;;;;20.82;13.88;;;;;;;0.56;100.00;99116.09;1720336;82;21038;-49
2022/12/13 11:50:44;;;;;;;20.55;13.43;;;;;;;0.50;100.00;99117.70;1702674;82;21628;-49
2022/12/13 11:53:45;;;;;;;20.72;13.05;;;;;;;0.46;100.00;99121.03;1728573;81;21502;-43
2022/12/13 11:56:30;;;;;;;18.57;13.20;;;;;;;0.42;100.00;99123.53;1711235;82;21076;-42
2022/12/13 11:59:15;;;;;;;22.85;13.78;;;;;;;0.38;100.00;99125.16;1739271;81;21093;-48
2022/12/13 12:01:46;;;;;;;19.87;13.08;;;;;;;0.38;100.00;99122.58;1703372;82;21442;-48
2022/12/13 12:04:51;;;;;;;21.77;12.33;;;;;;;0.39;100.00;99124.73;1736483;81;21053;-43
2022/12/13 12:07:24;;;;;;;20.12;12.05;;;;;;;0.37;100.00;99120.84;1735470;81;21014;-48
2022/12/13 12:09:58;;;;;;;20.27;12.40;;;;;;;0.25;100.00;99124.02;1746135;81;21356;-47
2022/12/13 12:12:33;;;;;;;18.95;12.60;;;;;;;0.17;100.00;99125.95;1715537;82;21663;-42
2022/12/13 12:15:11;;;;;;;21.35;12.73;;;;;;;0.10;100.00;99120.22;1728587;81;21615;-48
2022/12/13 12:17:38;;;;;;;23.05;13.45;;;;;;;0.02;100.00;99126.91;1739373;81;21055;-48
2022/12/13 12:20:07;;;;;;;19.62;12.05;;;;;;;-0.03;100.00;99134.08;1734721;81;21566;-47
2022/12/13 12:22:52;;;;;;;20.95;13.40;;;;;;;-0.07;100.00;99132.68;1731920;81;21019;-42
2022/12/13 12:25:39;;;;;;;23.32;13.85;;;;;;;-0.12;100.00;99138.99;1737922;81;21910;-49
2022/12/13 12:28:45;;;;;;;27.95;17.42;;;;;;;-0.16;100.00;99129.48;1725020;81;21091;-42
2022/12/13 12:31:32;;;;;;;26.25;15.90;;;;;;;-0.17;100.00;99129.05;1736385;81;21052;-42
2022/12/13 12:34:22;;;;;;;24.95;14.50;;;;;;;-0.18;100.00;99128.56;1726550;81;21040;-48
2022/12/13 12:37:06;;;;;;;26.65;15.78;;;;;;;-0.19;100.00;99133.26;1732863;81;21042;-48
2022/12/13 12:40:00;;;;;;;22.50;14.20;;;;;;;-0.19;100.00;99129.81;1737461;81;21028;-42
2022/12/13 12:42:50;;;;;;;23.02;13.93;;;;;;;-0.22;100.00;99125.91;1632284;87;21073;-43
2022/12/13 12:45:41;;;;;;;21.82;13.32;;;;;;;-0.26;100.00;99122.38;1610704;87;21079;-42
2022/12/13 12:48:28;;;;;;;19.35;11.78;;;;;;;-0.32;100.00;99118.38;1614022;87;21184;-47
2022/12/13 12:51:20;;;;;;;20.25;12.70;;;;;;;-0.36;100.00;99123.84;1620308;87;21153;-48
2022/12/13 12:54:02;;;;;;;23.05;13.10;;;;;;;-0.40;100.00;99122.47;1639972;87;21089;-43
2022/12/13 12:56:50;;;;;;;18.27;11.22;;;;;;;-0.43;100.00;99116.81;1641421;87;21603;-42
2022/12/13 12:59:28;;;;;;;22.07;13.65;;;;;;;-0.48;100.00;99117.53;1641952;87;21085;-41
2022/12/13 13:02:20;;;;;;;21.35;13.05;;;;;;;-0.48;100.00;99112.39;1641491;87;21018;-47
2022/12/13 13:04:51;;;;;;;21.52;13.00;;;;;;;-0.47;100.00;99112.84;1641842;87;21074;-41
